Latest Coastal Weather Observations for Coconut Island

IDQ60701

Issued at 11:45 pm EST Thursday 24 April 2014 (issued every 10 minutes, with the page automatically refreshed every 10 minutes)

About coastal observations | Map of coastal stations | Coastal observations for QLD | Marine services | Other Formats
Station Details ID: 027054 Name: COCONUT ISLAND Lat: -10.05 Lon: 143.07 Height: 3.5 m
Data from the previous 72 hours. | See also: Recent months at Coconut Island
Date/Time
EST
Temp

°C
Wind Pressure Rain
since 9am
mm
Weather Cloud Vis
km
Sea
Height
m
Swell
Dir
 
Speed
knots
Gust
knots
hPa Trend Height
m
Period
s
Dir
24/11:30pm 26.8 ESE 3 5 1009.8 - 0.0 - - - - - - -
24/11:00pm 26.8 SE 1 4 1009.6 - 0.0 - - - - - - -
24/10:30pm 26.9 SE 2 6 1009.8 - 0.0 - - - - - - -
24/10:00pm 27.0 SSE 1 4 1009.7 - 0.0 - - - - - - -
24/09:30pm 27.0 SSE 1 4 1009.8 - 0.0 - - - - - - -
24/09:00pm 27.2 S 1 2 1009.6 - 0.0 - - - - - - -
24/08:30pm 27.3 SSE 1 3 1009.4 - 0.0 - - - - - - -
24/08:00pm 27.4 SSE 1 2 1009.0 - 0.0 - - - - - - -
24/07:30pm 27.6 S 1 2 1008.5 - 0.0 - - - - - - -
24/07:00pm 27.8 CALM 0 0 1008.2 - 0.0 - - - - - - -
24/06:30pm 27.9 CALM 0 2 1007.9 - 0.0 - - - - - - -
24/06:00pm 28.2 SE 1 3 1007.3 - 0.0 - - - - - - -
24/05:30pm 28.6 SSE 1 3 1007.2 - 0.0 - - - - - - -
24/05:00pm 28.9 SSE 1 5 1006.8 - 0.0 - - - - - - -
24/04:30pm 29.1 SSE 1 6 1007.0 - 0.0 - - - - - - -
24/04:00pm 30.0 SE 2 6 1006.5 - 0.0 - - - - - - -
24/03:30pm 31.1 SE 2 4 1006.6 - 0.0 - - - - - - -
24/03:00pm 31.2 SE 2 6 1006.4 - 0.0 - - - - - - -
24/02:30pm 30.7 SE 3 7 1006.7 - 0.0 - - - - - - -
24/02:00pm 31.4 SE 3 6 1007.1 - 0.0 - - - - - - -
24/01:30pm 31.3 ESE 2 8 1007.6 - 0.0 - - - - - - -
24/01:00pm 31.5 ESE 4 7 1007.8 - 0.0 - - - - - - -
24/12:30pm 31.4 ESE 5 8 1008.4 - 0.0 - - - - - - -
24/12:00pm 31.9 SE 4 9 1008.8 - 0.0 - - - - - - -
24/11:30am 32.1 ESE 4 10 1009.3 - 0.0 - - - - - - -
24/11:00am 31.2 ESE 4 7 1009.7 - 0.0 - - - - - - -
24/10:30am 30.6 ESE 5 8 1009.9 - 0.0 - - - - - - -
24/10:00am 30.7 ESE 5 9 1009.4 - 0.0 - - - - - - -
24/09:30am 30.5 ESE 5 9 1009.6 - 0.0 - - - - - - -
24/09:00am 29.9 ESE 4 9 1009.5 - - - - - - - - -
24/08:30am 28.3 SE 3 6 1009.6 - - - - - - - - -
24/08:00am 28.2 ESE 4 8 1009.1 - - - - - - - - -
24/07:30am 27.7 ESE 3 7 1008.9 - - - - - - - - -
24/07:00am 26.8 ESE 3 7 1008.3 - - - - - - - - -
24/06:30am 26.7 ESE 5 8 1008.0 - - - - - - - - -
24/06:00am 26.6 ESE 5 8 1007.8 - - - - - - - - -
24/03:30am 26.3 SE 3 7 1007.6 - - - - - - - - -
24/03:00am 26.4 SSE 3 8 1007.6 - 0.0 - - - - - - -
24/02:30am 26.3 SE 3 7 1007.9 - - - - - - - - -
24/02:00am 26.5 ESE 4 7 1008.2 - - - - - - - - -
24/01:30am 26.6 ESE 4 8 1008.7 - - - - - - - - -
24/01:00am 26.6 SE 4 8 1009.0 - - - - - - - - -
24/12:30am 26.5 ESE 4 8 1009.4 - - - - - - - - -
24/12:00am 26.5 SE 4 8 1009.4 - - - - - - - - -
 
Date/Time
EST
Temp

°C
Wind Pressure Rain
since 9am
mm
Weather Cloud Vis
km
Sea
Height
m
Swell
Dir
 
Speed
knots
Gust
knots
hPa Trend Height
m
Period
s
Dir
23/11:30pm 26.7 SE 3 7 1009.8 - - - - - - - - -
23/11:00pm 26.7 SE 4 10 1009.9 - - - - - - - - -
23/10:30pm 26.8 SSE 2 8 1010.0 - - - - - - - - -
23/10:00pm 26.9 SSE 3 7 1009.6 - - - - - - - - -
23/09:30pm 26.9 SE 4 9 1009.4 - - - - - - - - -
23/09:00pm 27.2 SSE 3 8 1009.5 - 0.0 - - - - - - -
23/08:30pm 27.4 SSE 3 9 1009.4 - - - - - - - - -
23/08:00pm 27.7 SSE 2 5 1009.1 - - - - - - - - -
23/07:30pm 27.7 SSE 3 8 1008.8 - - - - - - - - -
23/07:00pm 27.8 SSE 2 5 1008.1 - - - - - - - - -
23/06:30pm 28.0 SSE 2 4 1007.9 - - - - - - - - -
23/06:00pm 28.6 SSE 2 3 1007.5 - - - - - - - - -
23/05:30pm 29.3 SSE 2 3 1007.3 - - - - - - - - -
23/05:00pm 29.8 SSE 2 4 1007.0 - - - - - - - - -
23/04:30pm 30.6 SSE 1 3 1007.0 - - - - - - - - -
23/04:00pm 30.8 SSE 2 4 1006.8 - - - - - - - - -
23/03:30pm 31.4 SSE 2 5 1007.2 - - - - - - - - -
23/03:00pm 32.0 SSE 1 4 1007.5 - - - - - - - - -
23/02:30pm 32.5 SE 3 7 1007.8 - - - - - - - - -
23/02:00pm 32.4 SE 3 6 1007.9 - - - - - - - - -
23/01:30pm 31.8 ESE 5 11 1008.3 - - - - - - - - -
23/01:00pm 31.4 E 7 13 1008.7 - 0.0 - - - - - - -
23/12:30pm 31.7 ESE 6 13 1008.9 - 0.0 - - - - - - -
23/12:00pm 31.3 E 6 11 1009.1 - 0.0 - - - - - - -
23/11:30am 31.2 E 7 13 1009.5 - 0.0 - - - - - - -
23/11:00am 30.9 E 6 11 1009.6 - 0.0 - - - - - - -
23/10:30am 30.2 E 6 11 1010.0 - 0.0 - - - - - - -
23/10:00am 30.7 E 7 11 1010.3 - 0.0 - - - - - - -
23/09:30am 29.9 ESE 5 9 1010.8 - 0.0 - - - - - - -
23/09:00am 29.1 ESE 6 10 1010.3 - 0.4 - - - - - - -
23/08:30am 29.3 ESE 5 9 1010.6 - 0.4 - - - - - - -
23/08:00am 28.4 ESE 5 9 1010.1 - 0.4 - - - - - - -
23/07:30am 27.7 ESE 5 9 1009.9 - 0.4 - - - - - - -
23/07:00am 27.3 ESE 6 10 1009.4 - 0.4 - - - - - - -
23/06:30am 27.1 ESE 6 13 1009.0 - 0.4 - - - - - - -
23/06:00am 27.0 ESE 6 12 1008.6 - 0.4 - - - - - - -
23/05:30am 27.0 ESE 6 13 1008.5 - 0.4 - - - - - - -
23/05:00am 26.9 ESE 7 12 1008.1 - 0.4 - - - - - - -
23/04:30am 26.9 E 7 13 1008.1 - 0.4 - - - - - - -
23/04:00am 26.8 ESE 7 12 1007.8 - 0.4 - - - - - - -
23/03:30am 27.3 ESE 6 11 1008.0 - 0.2 - - - - - - -
23/03:00am 27.3 ESE 7 12 1007.9 - 0.2 - - - - - - -
23/02:30am 27.1 ESE 7 12 1008.1 - 0.2 - - - - - - -
23/02:00am 27.3 ESE 6 12 1008.4 - 0.2 - - - - - - -
23/01:30am 27.1 ESE 7 11 1008.7 - 0.2 - - - - - - -
23/01:00am 27.3 ESE 6 11 1008.9 - 0.2 - - - - - - -
23/12:30am 27.4 ESE 5 13 1009.3 - 0.2 - - - - - - -
23/12:00am 27.3 ESE 6 10 1009.5 - 0.2 - - - - - - -
 
Date/Time
EST
Temp

°C
Wind Pressure Rain
since 9am
mm
Weather Cloud Vis
km
Sea
Height
m
Swell
Dir
 
Speed
knots
Gust
knots
hPa Trend Height
m
Period
s
Dir
22/11:30pm 27.4 ESE 5 10 1009.9 - 0.2 - - - - - - -
22/11:00pm 27.4 ESE 6 10 1010.0 - 0.2 - - - - - - -
22/10:30pm 27.5 ESE 6 10 1010.0 - 0.2 - - - - - - -
22/10:00pm 27.6 ESE 8 14 1010.1 - 0.2 - - - - - - -
22/09:30pm 27.7 ESE 8 14 1010.2 - 0.2 - - - - - - -
22/09:00pm 27.6 ESE 7 14 1009.9 - 0.2 - - - - - - -
22/08:30pm 27.9 ESE 7 13 1009.9 - 0.2 - - - - - - -
22/08:00pm 27.9 ESE 6 13 1009.8 - 0.2 - - - - - - -
22/07:30pm 27.9 ESE 6 12 1009.3 - 0.2 - - - - - - -
22/07:00pm 28.1 ESE 6 11 1008.9 - 0.2 - - - - - - -
22/06:30pm 28.3 SE 4 13 1008.6 - 0.2 - - - - - - -
22/06:00pm 28.6 ESE 5 10 1008.3 - 0.2 - - - - - - -
22/05:30pm 29.4 E 6 11 1008.1 - 0.2 - - - - - - -
22/05:00pm 28.9 E 6 11 1007.7 - 0.2 - - - - - - -
22/04:30pm 29.4 E 6 11 1007.5 - 0.2 - - - - - - -
22/04:00pm 29.9 E 7 13 1007.4 - 0.2 - - - - - - -
22/03:30pm 30.1 E 7 12 1007.4 - 0.2 - - - - - - -
22/03:00pm 31.0 E 9 14 1007.5 - 0.2 - - - - - - -
22/02:30pm 31.4 E 9 17 1007.7 - 0.2 - - - - - - -
22/02:00pm 31.1 E 8 17 1007.9 - 0.2 - - - - - - -
22/01:30pm 30.9 E 7 11 1008.8 - 0.2 - - - - - - -
22/01:00pm 31.7 E 6 10 1009.0 - 0.2 - - - - - - -
22/12:30pm 31.8 ESE 6 10 1009.6 - 0.2 - - - - - - -
22/12:00pm 31.0 ESE 6 12 1009.9 - 0.2 - - - - - - -
22/11:30am 30.7 ESE 6 12 1010.4 - 0.2 - - - - - - -
22/11:00am 30.2 ESE 6 11 1010.6 - 0.2 - - - - - - -
22/10:30am 31.2 E 6 10 1011.0 - 0.0 - - - - - - -
22/10:00am 30.8 E 5 9 1011.1 - 0.0 - - - - - - -
22/09:30am 30.1 E 4 9 1011.3 - 0.0 - - - - - - -
22/09:00am 29.0 E 3 6 1010.9 - 0.2 - - - - - - -
22/08:30am 29.1 E 4 6 1010.8 - 0.2 - - - - - - -
22/08:00am 27.8 ENE 3 6 1010.5 - 0.2 - - - - - - -
22/07:30am 27.3 E 4 6 1010.2 - 0.2 - - - - - - -
22/07:00am 27.0 E 4 6 1009.6 - 0.2 - - - - - - -
22/06:30am 26.9 E 4 6 1009.4 - 0.2 - - - - - - -
22/06:00am 27.1 E 4 7 1009.0 - 0.2 - - - - - - -
22/05:30am 27.2 E 5 8 1009.1 - 0.2 - - - - - - -
22/05:00am 27.4 E 4 8 1008.9 - 0.2 - - - - - - -
22/04:30am 27.4 E 5 8 1009.1 - 0.2 - - - - - - -
22/04:00am 27.3 E 5 9 1008.9 - 0.2 - - - - - - -
22/03:30am 27.3 E 5 8 1009.0 - 0.2 - - - - - - -
22/03:00am 27.2 E 5 8 1009.1 - 0.2 - - - - - - -
22/02:30am 27.2 E 5 10 1009.0 - 0.2 - - - - - - -
22/02:00am 27.0 E 5 10 1009.1 - 0.2 - - - - - - -
22/01:30am 26.9 E 5 8 1009.5 - 0.2 - - - - - - -
22/01:00am 27.0 E 5 8 1009.8 - 0.2 - - - - - - -
22/12:30am 27.4 ESE 5 9 1010.4 - 0.0 - - - - - - -
22/12:00am 27.3 ESE 5 9 1010.5 - 0.0 - - - - - - -

Other Formats:

Comma delimited format used in spreadsheet applications
http://www.bom.gov.au/fwo/IDQ60701/IDQ60701.94182.axf

JavaScript Object Notation format (JSON) in row-major order
http://www.bom.gov.au/fwo/IDQ60701/IDQ60701.94182.json